sensor_id;sensor_type;location;lat;lon;timestamp;pressure;altitude;pressure_sealevel;temperature;humidity
56912;BME280;42800;53.928;27.662;2023-01-29T00:01:41;98856.22;;;-0.27;100.00
56912;BME280;42800;53.928;27.662;2023-01-29T00:04:08;98818.38;;;-0.21;100.00
56912;BME280;42800;53.928;27.662;2023-01-29T00:06:34;98775.13;;;-0.39;100.00
56912;BME280;42800;53.928;27.662;2023-01-29T00:09:00;98792.97;;;-0.29;100.00
56912;BME280;42800;53.928;27.662;2023-01-29T00:11:26;98769.09;;;-0.22;100.00
56912;BME280;42800;53.928;27.662;2023-01-29T00:13:53;98719.03;;;-0.23;100.00
56912;BME280;42800;53.928;27.662;2023-01-29T00:16:19;98692.75;;;-0.17;100.00
56912;BME280;42800;53.928;27.662;2023-01-29T00:18:45;98667.72;;;-0.18;100.00
56912;BME280;42800;53.928;27.662;2023-01-29T00:21:14;98636.66;;;-0.15;100.00
56912;BME280;42800;53.928;27.662;2023-01-29T00:23:41;98618.09;;;-0.17;100.00
56912;BME280;42800;53.928;27.662;2023-01-29T00:26:07;98610.69;;;-0.34;100.00
56912;BME280;42800;53.928;27.662;2023-01-29T00:28:34;98632.16;;;-0.29;100.00
56912;BME280;42800;53.928;27.662;2023-01-29T00:31:06;98622.41;;;-0.38;100.00
56912;BME280;42800;53.928;27.662;2023-01-29T00:33:33;98639.91;;;-0.27;100.00
56912;BME280;42800;53.928;27.662;2023-01-29T00:36:01;98629.44;;;-0.51;100.00
56912;BME280;42800;53.928;27.662;2023-01-29T00:38:28;98639.41;;;-0.52;100.00
56912;BME280;42800;53.928;27.662;2023-01-29T00:40:55;98639.50;;;-0.43;100.00
56912;BME280;42800;53.928;27.662;2023-01-29T00:43:39;98598.06;;;-0.33;100.00
56912;BME280;42800;53.928;27.662;2023-01-29T00:46:23;98546.75;;;-0.51;100.00
56912;BME280;42800;53.928;27.662;2023-01-29T00:48:49;98548.81;;;-0.70;100.00
56912;BME280;42800;53.928;27.662;2023-01-29T00:51:16;98536.72;;;-0.36;100.00
56912;BME280;42800;53.928;27.662;2023-01-29T00:53:42;98501.75;;;-0.28;100.00
56912;BME280;42800;53.928;27.662;2023-01-29T00:56:09;98496.31;;;-0.36;100.00
56912;BME280;42800;53.928;27.662;2023-01-29T00:58:35;98501.75;;;-0.28;100.00
56912;BME280;42800;53.928;27.662;2023-01-29T01:01:01;98499.19;;;-0.33;100.00
56912;BME280;42800;53.928;27.662;2023-01-29T01:03:27;98493.91;;;-0.46;100.00
56912;BME280;42800;53.928;27.662;2023-01-29T01:06:04;98488.75;;;-0.26;100.00
56912;BME280;42800;53.928;27.662;2023-01-29T01:08:30;98491.66;;;-0.44;100.00
56912;BME280;42800;53.928;27.662;2023-01-29T01:11:15;98483.81;;;-0.32;100.00
56912;BME280;42800;53.928;27.662;2023-01-29T01:13:41;98487.94;;;-0.35;100.00
56912;BME280;42800;53.928;27.662;2023-01-29T01:16:09;98489.69;;;-0.30;100.00
56912;BME280;42800;53.928;27.662;2023-01-29T01:18:35;98497.50;;;-0.51;100.00
56912;BME280;42800;53.928;27.662;2023-01-29T01:21:02;98480.97;;;-0.36;100.00
56912;BME280;42800;53.928;27.662;2023-01-29T01:23:29;98489.31;;;-0.37;100.00
56912;BME280;42800;53.928;27.662;2023-01-29T01:25:55;98487.13;;;-0.35;100.00
56912;BME280;42800;53.928;27.662;2023-01-29T01:28:22;98487.75;;;-0.38;100.00
56912;BME280;42800;53.928;27.662;2023-01-29T01:30:48;98485.38;;;-0.40;100.00
56912;BME280;42800;53.928;27.662;2023-01-29T01:33:15;98484.97;;;-0.25;100.00
56912;BME280;42800;53.928;27.662;2023-01-29T01:35:42;98486.06;;;-0.26;100.00
56912;BME280;42800;53.928;27.662;2023-01-29T01:38:08;98484.50;;;-0.27;100.00
56912;BME280;42800;53.928;27.662;2023-01-29T01:40:34;98480.19;;;-0.28;100.00
56912;BME280;42800;53.928;27.662;2023-01-29T01:43:01;98488.59;;;-0.29;100.00
56912;BME280;42800;53.928;27.662;2023-01-29T01:45:29;98490.56;;;-0.43;100.00
56912;BME280;42800;53.928;27.662;2023-01-29T01:47:58;98496.44;;;-0.41;100.00
56912;BME280;42800;53.928;27.662;2023-01-29T01:50:29;98494.72;;;-0.37;100.00
56912;BME280;42800;53.928;27.662;2023-01-29T01:52:58;98490.13;;;-0.37;100.00
56912;BME280;42800;53.928;27.662;2023-01-29T01:55:27;98486.50;;;-0.32;100.00
56912;BME280;42800;53.928;27.662;2023-01-29T01:57:56;98484.91;;;-0.64;100.00
56912;BME280;42800;53.928;27.662;2023-01-29T02:00:26;98483.25;;;-0.52;100.00
56912;BME280;42800;53.928;27.662;2023-01-29T02:02:53;98484.25;;;-0.39;100.00
56912;BME280;42800;53.928;27.662;2023-01-29T02:05:38;98476.44;;;-0.49;100.00
56912;BME280;42800;53.928;27.662;2023-01-29T02:08:28;98477.31;;;-0.31;100.00
56912;BME280;42800;53.928;27.662;2023-01-29T02:11:15;98477.47;;;-0.36;100.00
56912;BME280;42800;53.928;27.662;2023-01-29T02:13:42;98458.75;;;-0.41;100.00
56912;BME280;42800;53.928;27.662;2023-01-29T02:16:09;98457.00;;;-0.37;100.00
56912;BME280;42800;53.928;27.662;2023-01-29T02:18:36;98464.19;;;-0.33;100.00
56912;BME280;42800;53.928;27.662;2023-01-29T02:21:19;98458.75;;;-0.41;100.00
56912;BME280;42800;53.928;27.662;2023-01-29T02:24:13;98474.03;;;-0.59;100.00
56912;BME280;42800;53.928;27.662;2023-01-29T02:26:54;98475.50;;;-0.53;100.00
56912;BME280;42800;53.928;27.662;2023-01-29T02:29:28;98475.78;;;-0.55;100.00
56912;BME280;42800;53.928;27.662;2023-01-29T02:32:08;98483.19;;;-0.60;100.00
56912;BME280;42800;53.928;27.662;2023-01-29T02:34:45;98488.09;;;-0.85;100.00
56912;BME280;42800;53.928;27.662;2023-01-29T02:37:36;98513.97;;;-0.98;100.00
56912;BME280;42800;53.928;27.662;2023-01-29T02:40:10;98534.81;;;-1.03;100.00
56912;BME280;42800;53.928;27.662;2023-01-29T02:42:43;98542.47;;;-0.97;100.00
56912;BME280;42800;53.928;27.662;2023-01-29T02:45:15;98565.13;;;-0.75;100.00
56912;BME280;42800;53.928;27.662;2023-01-29T02:47:47;98570.59;;;-0.80;100.00
56912;BME280;42800;53.928;27.662;2023-01-29T02:50:18;98586.75;;;-0.80;100.00
56912;BME280;42800;53.928;27.662;2023-01-29T02:52:53;98589.19;;;-0.70;100.00
56912;BME280;42800;53.928;27.662;2023-01-29T02:55:26;98591.09;;;-0.71;100.00
56912;BME280;42800;53.928;27.662;2023-01-29T02:57:58;98597.25;;;-0.92;100.00
56912;BME280;42800;53.928;27.662;2023-01-29T03:00:29;98615.50;;;-0.67;100.00
56912;BME280;42800;53.928;27.662;2023-01-29T03:03:02;98596.44;;;-0.79;100.00
56912;BME280;42800;53.928;27.662;2023-01-29T03:05:34;98589.03;;;-1.10;100.00
56912;BME280;42800;53.928;27.662;2023-01-29T03:08:05;98619.59;;;-0.92;100.00
56912;BME280;42800;53.928;27.662;2023-01-29T03:10:36;98583.38;;;-1.22;100.00
56912;BME280;42800;53.928;27.662;2023-01-29T03:13:07;98601.44;;;-1.00;100.00
56912;BME280;42800;53.928;27.662;2023-01-29T03:15:41;98558.66;;;-1.24;100.00
56912;BME280;42800;53.928;27.662;2023-01-29T03:18:13;98543.16;;;-1.55;100.00
56912;BME280;42800;53.928;27.662;2023-01-29T03:20:46;98535.81;;;-1.63;100.00
56912;BME280;42800;53.928;27.662;2023-01-29T03:23:17;98485.38;;;-1.30;100.00
56912;BME280;42800;53.928;27.662;2023-01-29T03:25:53;98438.38;;;-1.32;100.00
56912;BME280;42800;53.928;27.662;2023-01-29T03:28:43;98435.16;;;-1.57;100.00
56912;BME280;42800;53.928;27.662;2023-01-29T03:31:30;98435.44;;;-1.22;100.00
56912;BME280;42800;53.928;27.662;2023-01-29T03:34:17;98431.53;;;-1.16;100.00
56912;BME280;42800;53.928;27.662;2023-01-29T03:36:51;98439.28;;;-1.37;100.00
56912;BME280;42800;53.928;27.662;2023-01-29T03:39:21;98449.84;;;-1.40;100.00
56912;BME280;42800;53.928;27.662;2023-01-29T03:41:52;98437.81;;;-1.21;100.00
56912;BME280;42800;53.928;27.662;2023-01-29T03:44:29;98436.84;;;-1.25;100.00
56912;BME280;42800;53.928;27.662;2023-01-29T03:47:10;98423.63;;;-1.35;100.00
56912;BME280;42800;53.928;27.662;2023-01-29T03:49:50;98428.59;;;-1.28;100.00
56912;BME280;42800;53.928;27.662;2023-01-29T03:52:24;98420.63;;;-1.33;100.00
56912;BME280;42800;53.928;27.662;2023-01-29T03:54:57;98434.16;;;-1.25;100.00
56912;BME280;42800;53.928;27.662;2023-01-29T03:57:30;98437.44;;;-1.28;100.00
56912;BME280;42800;53.928;27.662;2023-01-29T04:00:05;98439.63;;;-1.52;100.00
56912;BME280;42800;53.928;27.662;2023-01-29T04:02:38;98413.69;;;-1.34;100.00
56912;BME280;42800;53.928;27.662;2023-01-29T04:05:13;98413.44;;;-1.24;100.00
56912;BME280;42800;53.928;27.662;2023-01-29T04:07:41;98423.31;;;-1.33;100.00
56912;BME280;42800;53.928;27.662;2023-01-29T04:10:11;98412.38;;;-1.37;100.00
56912;BME280;42800;53.928;27.662;2023-01-29T04:12:42;98413.53;;;-1.52;100.00
56912;BME280;42800;53.928;27.662;2023-01-29T04:15:12;98439.03;;;-1.49;100.00
56912;BME280;42800;53.928;27.662;2023-01-29T04:17:42;98442.44;;;-1.71;100.00
56912;BME280;42800;53.928;27.662;2023-01-29T04:20:11;98420.84;;;-1.66;100.00
56912;BME280;42800;53.928;27.662;2023-01-29T04:22:38;98432.94;;;-1.91;100.00
56912;BME280;42800;53.928;27.662;2023-01-29T04:25:07;98423.75;;;-1.76;100.00
56912;BME280;42800;53.928;27.662;2023-01-29T04:27:44;98433.28;;;-1.70;100.00
56912;BME280;42800;53.928;27.662;2023-01-29T04:30:22;98461.25;;;-1.71;100.00
56912;BME280;42800;53.928;27.662;2023-01-29T04:32:59;98454.66;;;-1.51;100.00
56912;BME280;42800;53.928;27.662;2023-01-29T04:35:31;98477.69;;;-1.59;100.00
56912;BME280;42800;53.928;27.662;2023-01-29T04:38:05;98480.75;;;-1.52;100.00
56912;BME280;42800;53.928;27.662;2023-01-29T04:40:42;98460.38;;;-1.67;100.00
56912;BME280;42800;53.928;27.662;2023-01-29T04:43:13;98420.94;;;-1.71;100.00
56912;BME280;42800;53.928;27.662;2023-01-29T04:45:49;98404.00;;;-1.58;100.00
56912;BME280;42800;53.928;27.662;2023-01-29T04:48:24;98417.75;;;-1.37;100.00
56912;BME280;42800;53.928;27.662;2023-01-29T04:50:57;98450.63;;;-1.40;100.00
56912;BME280;42800;53.928;27.662;2023-01-29T04:53:35;98465.25;;;-1.32;100.00
56912;BME280;42800;53.928;27.662;2023-01-29T04:56:08;98487.97;;;-1.38;100.00
56912;BME280;42800;53.928;27.662;2023-01-29T04:58:41;98464.75;;;-1.84;100.00
56912;BME280;42800;53.928;27.662;2023-01-29T05:01:12;98422.28;;;-1.46;100.00
56912;BME280;42800;53.928;27.662;2023-01-29T05:03:41;98436.59;;;-1.37;100.00
56912;BME280;42800;53.928;27.662;2023-01-29T05:06:09;98456.69;;;-1.34;100.00
56912;BME280;42800;53.928;27.662;2023-01-29T05:08:37;98466.56;;;-1.30;100.00
56912;BME280;42800;53.928;27.662;2023-01-29T05:11:04;98434.91;;;-1.69;100.00
56912;BME280;42800;53.928;27.662;2023-01-29T05:13:31;98423.28;;;-1.42;100.00
56912;BME280;42800;53.928;27.662;2023-01-29T05:16:01;98416.19;;;-1.74;100.00
56912;BME280;42800;53.928;27.662;2023-01-29T05:18:30;98418.34;;;-1.62;100.00
56912;BME280;42800;53.928;27.662;2023-01-29T05:21:00;98425.81;;;-1.59;100.00
56912;BME280;42800;53.928;27.662;2023-01-29T05:23:28;98419.84;;;-1.56;100.00
56912;BME280;42800;53.928;27.662;2023-01-29T05:25:55;98422.66;;;-1.39;100.00
56912;BME280;42800;53.928;27.662;2023-01-29T05:28:21;98447.75;;;-1.44;100.00
56912;BME280;42800;53.928;27.662;2023-01-29T05:30:49;98435.78;;;-1.74;100.00
56912;BME280;42800;53.928;27.662;2023-01-29T05:33:18;98394.41;;;-1.50;100.00
56912;BME280;42800;53.928;27.662;2023-01-29T05:35:45;98398.19;;;-1.51;100.00
56912;BME280;42800;53.928;27.662;2023-01-29T05:38:12;98409.13;;;-1.48;100.00
56912;BME280;42800;53.928;27.662;2023-01-29T05:40:38;98415.63;;;-1.49;100.00
56912;BME280;42800;53.928;27.662;2023-01-29T05:43:05;98405.41;;;-1.60;100.00
56912;BME280;42800;53.928;27.662;2023-01-29T05:45:36;98401.34;;;-1.72;100.00
56912;BME280;42800;53.928;27.662;2023-01-29T05:48:03;98405.13;;;-1.36;100.00
56912;BME280;42800;53.928;27.662;2023-01-29T05:50:29;98391.56;;;-2.04;100.00
56912;BME280;42800;53.928;27.662;2023-01-29T05:52:56;98382.41;;;-1.53;100.00
56912;BME280;42800;53.928;27.662;2023-01-29T05:55:23;98399.59;;;-1.54;100.00
56912;BME280;42800;53.928;27.662;2023-01-29T05:57:49;98397.78;;;-1.81;100.00
56912;BME280;42800;53.928;27.662;2023-01-29T06:00:16;98401.75;;;-1.42;100.00
56912;BME280;42800;53.928;27.662;2023-01-29T06:02:42;98396.84;;;-1.62;100.00
56912;BME280;42800;53.928;27.662;2023-01-29T06:05:09;98402.94;;;-1.71;100.00
56912;BME280;42800;53.928;27.662;2023-01-29T06:07:35;98401.84;;;-1.70;100.00
56912;BME280;42800;53.928;27.662;2023-01-29T06:10:01;98386.75;;;-1.57;100.00
56912;BME280;42800;53.928;27.662;2023-01-29T06:12:28;98394.84;;;-1.34;100.00
56912;BME280;42800;53.928;27.662;2023-01-29T06:14:54;98401.53;;;-1.32;100.00
56912;BME280;42800;53.928;27.662;2023-01-29T06:17:21;98389.22;;;-1.47;100.00
56912;BME280;42800;53.928;27.662;2023-01-29T06:19:47;98394.41;;;-1.50;100.00
56912;BME280;42800;53.928;27.662;2023-01-29T06:22:13;98393.75;;;-1.33;100.00
56912;BME280;42800;53.928;27.662;2023-01-29T06:24:39;98380.34;;;-1.47;100.00
56912;BME280;42800;53.928;27.662;2023-01-29T06:27:05;98368.88;;;-1.39;100.00
56912;BME280;42800;53.928;27.662;2023-01-29T06:29:32;98361.00;;;-1.58;100.00
56912;BME280;42800;53.928;27.662;2023-01-29T06:31:58;98369.56;;;-1.56;100.00
56912;BME280;42800;53.928;27.662;2023-01-29T06:34:25;98367.09;;;-1.66;100.00
56912;BME280;42800;53.928;27.662;2023-01-29T06:36:51;98370.69;;;-1.71;100.00
56912;BME280;42800;53.928;27.662;2023-01-29T06:39:17;98371.75;;;-1.35;100.00
56912;BME280;42800;53.928;27.662;2023-01-29T06:41:43;98359.75;;;-1.74;100.00
56912;BME280;42800;53.928;27.662;2023-01-29T06:44:10;98351.81;;;-1.57;100.00
56912;BME280;42800;53.928;27.662;2023-01-29T06:46:37;98355.00;;;-1.55;100.00
56912;BME280;42800;53.928;27.662;2023-01-29T06:49:04;98351.75;;;-1.21;100.00
56912;BME280;42800;53.928;27.662;2023-01-29T06:51:30;98341.81;;;-1.43;100.00
56912;BME280;42800;53.928;27.662;2023-01-29T06:53:56;98346.03;;;-1.28;100.00
56912;BME280;42800;53.928;27.662;2023-01-29T06:56:23;98344.03;;;-1.13;100.00
56912;BME280;42800;53.928;27.662;2023-01-29T06:58:49;98347.31;;;-0.94;100.00
56912;BME280;42800;53.928;27.662;2023-01-29T07:01:16;98344.72;;;-1.30;100.00
56912;BME280;42800;53.928;27.662;2023-01-29T07:03:43;98334.22;;;-0.87;100.00
56912;BME280;42800;53.928;27.662;2023-01-29T07:06:09;98335.34;;;-1.10;100.00
56912;BME280;42800;53.928;27.662;2023-01-29T07:08:36;98327.69;;;-0.95;100.00
56912;BME280;42800;53.928;27.662;2023-01-29T07:11:03;98330.13;;;-1.15;100.00
56912;BME280;42800;53.928;27.662;2023-01-29T07:13:30;98331.59;;;-1.54;100.00
56912;BME280;42800;53.928;27.662;2023-01-29T07:15:57;98333.97;;;-1.08;100.00
56912;BME280;42800;53.928;27.662;2023-01-29T07:18:24;98326.66;;;-1.38;100.00
56912;BME280;42800;53.928;27.662;2023-01-29T07:20:51;98329.84;;;-1.36;100.00
56912;BME280;42800;53.928;27.662;2023-01-29T07:23:17;98318.56;;;-0.85;100.00
56912;BME280;42800;53.928;27.662;2023-01-29T07:25:44;98322.38;;;-0.86;100.00
56912;BME280;42800;53.928;27.662;2023-01-29T07:28:10;98311.59;;;-1.17;100.00
56912;BME280;42800;53.928;27.662;2023-01-29T07:30:36;98314.59;;;-0.87;100.00
56912;BME280;42800;53.928;27.662;2023-01-29T07:33:03;98309.91;;;-0.73;100.00
56912;BME280;42800;53.928;27.662;2023-01-29T07:35:30;98311.38;;;-0.98;100.00
56912;BME280;42800;53.928;27.662;2023-01-29T07:37:57;98312.63;;;-1.27;100.00
56912;BME280;42800;53.928;27.662;2023-01-29T07:40:23;98303.06;;;-1.19;100.00
56912;BME280;42800;53.928;27.662;2023-01-29T07:42:49;98304.38;;;-1.08;100.00
56912;BME280;42800;53.928;27.662;2023-01-29T07:45:16;98306.16;;;-0.95;100.00
56912;BME280;42800;53.928;27.662;2023-01-29T07:47:42;98302.03;;;-1.01;100.00
56912;BME280;42800;53.928;27.662;2023-01-29T07:50:09;98293.75;;;-1.13;100.00
56912;BME280;42800;53.928;27.662;2023-01-29T07:52:35;98300.28;;;-1.36;100.00
56912;BME280;42800;53.928;27.662;2023-01-29T07:55:02;98302.28;;;-1.11;100.00
56912;BME280;42800;53.928;27.662;2023-01-29T07:57:29;98301.59;;;-1.25;100.00
56912;BME280;42800;53.928;27.662;2023-01-29T07:59:55;98304.41;;;-0.99;100.00
56912;BME280;42800;53.928;27.662;2023-01-29T08:02:21;98298.69;;;-1.06;100.00
56912;BME280;42800;53.928;27.662;2023-01-29T08:04:47;98300.94;;;-1.00;100.00
56912;BME280;42800;53.928;27.662;2023-01-29T08:07:14;98299.88;;;-0.90;100.00
56912;BME280;42800;53.928;27.662;2023-01-29T08:09:40;98300.03;;;-1.17;100.00
56912;BME280;42800;53.928;27.662;2023-01-29T08:12:07;98314.25;;;-1.26;100.00
56912;BME280;42800;53.928;27.662;2023-01-29T08:14:33;98320.66;;;-1.13;100.00
56912;BME280;42800;53.928;27.662;2023-01-29T08:16:59;98311.63;;;-1.39;100.00
56912;BME280;42800;53.928;27.662;2023-01-29T08:19:25;98316.34;;;-1.45;100.00
56912;BME280;42800;53.928;27.662;2023-01-29T08:21:51;98314.50;;;-1.05;100.00
56912;BME280;42800;53.928;27.662;2023-01-29T08:24:18;98314.25;;;-0.95;100.00
56912;BME280;42800;53.928;27.662;2023-01-29T08:26:44;98300.50;;;-1.47;100.00
56912;BME280;42800;53.928;27.662;2023-01-29T08:29:11;98300.47;;;-1.24;100.00
56912;BME280;42800;53.928;27.662;2023-01-29T08:31:37;98306.78;;;-0.98;100.00
56912;BME280;42800;53.928;27.662;2023-01-29T08:34:04;98284.88;;;-1.13;100.00
56912;BME280;42800;53.928;27.662;2023-01-29T08:36:30;98302.19;;;-0.97;100.00
56912;BME280;42800;53.928;27.662;2023-01-29T08:38:56;98285.53;;;-0.77;100.00
56912;BME280;42800;53.928;27.662;2023-01-29T08:41:23;98283.84;;;-0.95;100.00
56912;BME280;42800;53.928;27.662;2023-01-29T08:43:49;98282.28;;;-0.96;100.00
56912;BME280;42800;53.928;27.662;2023-01-29T08:46:16;98289.56;;;-0.97;100.00
56912;BME280;42800;53.928;27.662;2023-01-29T08:48:42;98286.72;;;-0.91;100.00
56912;BME280;42800;53.928;27.662;2023-01-29T08:51:08;98274.94;;;-0.64;100.00
56912;BME280;42800;53.928;27.662;2023-01-29T08:53:34;98265.44;;;-0.62;100.00
56912;BME280;42800;53.928;27.662;2023-01-29T08:56:01;98264.31;;;-0.69;100.00
56912;BME280;42800;53.928;27.662;2023-01-29T08:58:27;98262.22;;;-0.81;100.00
56912;BME280;42800;53.928;27.662;2023-01-29T09:00:53;98257.16;;;-0.83;100.00
56912;BME280;42800;53.928;27.662;2023-01-29T09:03:20;98247.88;;;-0.59;100.00
56912;BME280;42800;53.928;27.662;2023-01-29T09:05:46;98240.63;;;-0.99;100.00
56912;BME280;42800;53.928;27.662;2023-01-29T09:08:12;98255.00;;;-1.12;100.00
56912;BME280;42800;53.928;27.662;2023-01-29T09:10:39;98263.16;;;-0.86;100.00
56912;BME280;42800;53.928;27.662;2023-01-29T09:13:06;98264.25;;;-0.87;100.00
56912;BME280;42800;53.928;27.662;2023-01-29T09:15:32;98255.78;;;-1.11;100.00
56912;BME280;42800;53.928;27.662;2023-01-29T09:18:02;98262.81;;;-1.33;100.00
56912;BME280;42800;53.928;27.662;2023-01-29T09:20:29;98272.00;;;-1.25;100.00
56912;BME280;42800;53.928;27.662;2023-01-29T09:22:55;98291.53;;;-1.11;100.00
56912;BME280;42800;53.928;27.662;2023-01-29T09:25:23;98296.06;;;-1.20;100.00
56912;BME280;42800;53.928;27.662;2023-01-29T09:27:49;98313.19;;;-1.16;100.00
56912;BME280;42800;53.928;27.662;2023-01-29T09:30:17;98318.44;;;-1.11;100.00
56912;BME280;42800;53.928;27.662;2023-01-29T09:32:43;98316.44;;;-1.28;100.00
56912;BME280;42800;53.928;27.662;2023-01-29T09:35:09;98324.06;;;-1.21;100.00
56912;BME280;42800;53.928;27.662;2023-01-29T09:37:36;98316.53;;;-1.10;100.00
56912;BME280;42800;53.928;27.662;2023-01-29T09:40:03;98314.75;;;-0.84;100.00
56912;BME280;42800;53.928;27.662;2023-01-29T09:42:35;98291.53;;;-0.71;100.00
56912;BME280;42800;53.928;27.662;2023-01-29T09:45:04;98297.97;;;-0.89;100.00
56912;BME280;42800;53.928;27.662;2023-01-29T09:47:33;98318.44;;;-0.80;100.00
56912;BME280;42800;53.928;27.662;2023-01-29T09:50:03;98317.56;;;-0.58;100.00
56912;BME280;42800;53.928;27.662;2023-01-29T09:52:33;98303.50;;;-0.46;100.00
56912;BME280;42800;53.928;27.662;2023-01-29T09:55:08;98270.97;;;-0.76;100.00
56912;BME280;42800;53.928;27.662;2023-01-29T09:57:42;98286.72;;;-0.91;100.00
56912;BME280;42800;53.928;27.662;2023-01-29T10:00:14;98283.47;;;-0.71;100.00
56912;BME280;42800;53.928;27.662;2023-01-29T10:02:55;98303.91;;;-0.61;100.00
56912;BME280;42800;53.928;27.662;2023-01-29T10:05:35;98289.28;;;-0.86;100.00
56912;BME280;42800;53.928;27.662;2023-01-29T10:08:32;98287.97;;;-0.49;100.00
56912;BME280;42800;53.928;27.662;2023-01-29T10:11:11;98252.91;;;-0.75;100.00
56912;BME280;42800;53.928;27.662;2023-01-29T10:13:48;98298.50;;;-0.70;100.00
56912;BME280;42800;53.928;27.662;2023-01-29T10:16:29;98297.03;;;-0.85;100.00
56912;BME280;42800;53.928;27.662;2023-01-29T10:19:12;98315.66;;;-0.97;100.00
56912;BME280;42800;53.928;27.662;2023-01-29T10:22:10;98358.19;;;-0.77;100.00
56912;BME280;42800;53.928;27.662;2023-01-29T10:24:44;98344.25;;;-1.10;100.00
56912;BME280;42800;53.928;27.662;2023-01-29T10:27:15;98356.63;;;-0.69;100.00
56912;BME280;42800;53.928;27.662;2023-01-29T10:29:44;98308.63;;;-0.76;100.00
56912;BME280;42800;53.928;27.662;2023-01-29T10:32:14;98324.72;;;-0.84;100.00
56912;BME280;42800;53.928;27.662;2023-01-29T10:34:47;98306.81;;;-0.49;100.00
56912;BME280;42800;53.928;27.662;2023-01-29T10:37:17;98303.41;;;-0.72;100.00
56912;BME280;42800;53.928;27.662;2023-01-29T10:39:44;98306.16;;;-0.55;100.00
56912;BME280;42800;53.928;27.662;2023-01-29T10:42:22;98306.06;;;-0.32;100.00
56912;BME280;42800;53.928;27.662;2023-01-29T10:45:03;98301.44;;;-0.49;100.00
56912;BME280;42800;53.928;27.662;2023-01-29T10:48:02;98284.94;;;-0.48;100.00
56912;BME280;42800;53.928;27.662;2023-01-29T10:50:40;98296.72;;;-0.35;100.00
56912;BME280;42800;53.928;27.662;2023-01-29T10:53:26;98262.50;;;-0.43;100.00
56912;BME280;42800;53.928;27.662;2023-01-29T10:56:00;98279.19;;;-0.63;100.00
56912;BME280;42800;53.928;27.662;2023-01-29T10:58:36;98305.88;;;-0.53;100.00
56912;BME280;42800;53.928;27.662;2023-01-29T11:01:04;98338.19;;;-0.53;100.00
56912;BME280;42800;53.928;27.662;2023-01-29T11:03:32;98332.38;;;-0.29;100.00
56912;BME280;42800;53.928;27.662;2023-01-29T11:06:07;98318.72;;;-0.41;100.00
56912;BME280;42800;53.928;27.662;2023-01-29T11:08:39;98294.84;;;-0.08;100.00
56912;BME280;42800;53.928;27.662;2023-01-29T11:11:08;98254.91;;;-0.15;100.00
56912;BME280;42800;53.928;27.662;2023-01-29T11:13:42;98248.25;;;0.09;100.00
56912;BME280;42800;53.928;27.662;2023-01-29T11:16:09;98250.94;;;-0.26;100.00
56912;BME280;42800;53.928;27.662;2023-01-29T11:18:51;98265.38;;;-0.13;100.00
56912;BME280;42800;53.928;27.662;2023-01-29T11:21:17;98240.78;;;-0.20;100.00
56912;BME280;42800;53.928;27.662;2023-01-29T11:23:44;98234.59;;;-0.21;100.00
56912;BME280;42800;53.928;27.662;2023-01-29T11:26:12;98248.41;;;0.12;100.00
56912;BME280;42800;53.928;27.662;2023-01-29T11:28:40;98243.19;;;-0.19;100.00
56912;BME280;42800;53.928;27.662;2023-01-29T11:31:18;98261.22;;;-0.11;100.00
56912;BME280;42800;53.928;27.662;2023-01-29T11:33:45;98281.34;;;-0.34;100.00
56912;BME280;42800;53.928;27.662;2023-01-29T11:36:30;98319.69;;;-0.29;100.00
56912;BME280;42800;53.928;27.662;2023-01-29T11:39:12;98354.13;;;-0.08;100.00
56912;BME280;42800;53.928;27.662;2023-01-29T11:41:46;98350.97;;;0.16;100.00
56912;BME280;42800;53.928;27.662;2023-01-29T11:44:21;98343.34;;;0.09;100.00
56912;BME280;42800;53.928;27.662;2023-01-29T11:46:51;98370.97;;;0.32;100.00
56912;BME280;42800;53.928;27.662;2023-01-29T11:49:25;98302.78;;;0.23;100.00
56912;BME280;42800;53.928;27.662;2023-01-29T11:51:55;98305.63;;;0.35;100.00
56912;BME280;42800;53.928;27.662;2023-01-29T11:54:26;98281.38;;;0.09;100.00
56912;BME280;42800;53.928;27.662;2023-01-29T11:56:54;98322.91;;;-0.09;100.00
56912;BME280;42800;53.928;27.662;2023-01-29T11:59:36;98340.22;;;0.25;100.00
56912;BME280;42800;53.928;27.662;2023-01-29T12:02:11;98351.63;;;0.21;100.00
56912;BME280;42800;53.928;27.662;2023-01-29T12:04:38;98342.44;;;0.14;100.00
56912;BME280;42800;53.928;27.662;2023-01-29T12:07:11;98415.31;;;-0.09;100.00
56912;BME280;42800;53.928;27.662;2023-01-29T12:09:38;98496.69;;;0.19;100.00
56912;BME280;42800;53.928;27.662;2023-01-29T12:12:16;98491.28;;;0.11;100.00
56912;BME280;42800;53.928;27.662;2023-01-29T12:14:43;98487.31;;;0.08;100.00
56912;BME280;42800;53.928;27.662;2023-01-29T12:17:14;98523.75;;;0.06;100.00
56912;BME280;42800;53.928;27.662;2023-01-29T12:19:45;98513.03;;;0.14;100.00
56912;BME280;42800;53.928;27.662;2023-01-29T12:22:17;98554.19;;;-0.03;100.00
56912;BME280;42800;53.928;27.662;2023-01-29T12:24:51;98625.56;;;0.09;100.00
56912;BME280;42800;53.928;27.662;2023-01-29T12:27:22;98628.31;;;0.17;100.00
56912;BME280;42800;53.928;27.662;2023-01-29T12:29:56;98598.41;;;0.36;100.00
56912;BME280;42800;53.928;27.662;2023-01-29T12:32:29;98566.09;;;0.05;100.00
56912;BME280;42800;53.928;27.662;2023-01-29T12:35:02;98598.94;;;0.16;100.00
56912;BME280;42800;53.928;27.662;2023-01-29T12:37:37;98590.25;;;0.19;100.00
56912;BME280;42800;53.928;27.662;2023-01-29T12:40:11;98575.31;;;0.53;100.00
56912;BME280;42800;53.928;27.662;2023-01-29T12:42:40;98548.28;;;0.35;100.00
56912;BME280;42800;53.928;27.662;2023-01-29T12:45:14;98527.69;;;0.39;100.00
56912;BME280;42800;53.928;27.662;2023-01-29T12:47:45;98526.44;;;0.45;100.00
56912;BME280;42800;53.928;27.662;2023-01-29T12:50:15;98538.63;;;0.43;100.00
56912;BME280;42800;53.928;27.662;2023-01-29T12:52:47;98594.34;;;0.16;100.00
56912;BME280;42800;53.928;27.662;2023-01-29T12:55:17;98611.50;;;-0.11;100.00
56912;BME280;42800;53.928;27.662;2023-01-29T12:57:49;98657.53;;;-0.21;100.00